createdAt,value
2023-03-29T00:00:18.356Z,77.84
2023-03-29T00:02:45.011Z,77.55
2023-03-29T00:05:11.371Z,77.87
2023-03-29T00:07:37.645Z,78.28
2023-03-29T00:10:04.689Z,77.95
2023-03-29T00:12:32.082Z,78.28
2023-03-29T00:14:58.392Z,78.29
2023-03-29T00:17:24.824Z,79.83
2023-03-29T00:19:51.147Z,78.70
2023-03-29T00:22:17.505Z,78.60
2023-03-29T00:24:43.819Z,78.60
2023-03-29T00:27:10.225Z,79.16
2023-03-29T00:29:36.724Z,79.34
2023-03-29T00:32:03.095Z,80.17
2023-03-29T00:34:29.424Z,79.17
2023-03-29T00:36:55.882Z,79.72
2023-03-29T00:39:22.291Z,79.91
2023-03-29T00:41:50.126Z,80.21
2023-03-29T00:44:54.120Z,80.08
2023-03-29T00:47:24.250Z,79.74
2023-03-29T00:49:52.673Z,80.31
2023-03-29T00:52:21.015Z,80.09
2023-03-29T00:54:50.651Z,80.33
2023-03-29T00:57:20.273Z,80.10
2023-03-29T00:59:48.366Z,80.32
2023-03-29T01:02:21.500Z,80.12
2023-03-29T01:04:55.971Z,80.11
2023-03-29T01:07:27.649Z,80.57
2023-03-29T01:10:15.598Z,80.96
2023-03-29T01:12:48.516Z,81.29
2023-03-29T01:15:19.416Z,81.54
2023-03-29T01:17:45.855Z,80.74
2023-03-29T01:20:45.294Z,81.04
2023-03-29T01:23:50.446Z,80.75
2023-03-29T01:26:25.099Z,81.16
2023-03-29T01:29:05.283Z,80.91
2023-03-29T01:31:36.958Z,80.86
2023-03-29T01:34:31.524Z,81.54
2023-03-29T01:37:07.378Z,81.17
2023-03-29T01:39:33.757Z,81.40
2023-03-29T01:42:18.498Z,81.42
2023-03-29T01:45:10.687Z,81.23
2023-03-29T01:47:46.541Z,81.47
2023-03-29T01:50:18.499Z,81.69
2023-03-29T01:52:58.784Z,81.68
2023-03-29T01:55:31.621Z,81.69
2023-03-29T01:58:00.167Z,81.80
2023-03-29T02:00:28.596Z,81.62
2023-03-29T02:03:00.630Z,81.63
2023-03-29T02:05:29.940Z,81.79
2023-03-29T02:07:57.940Z,81.26
2023-03-29T02:10:24.343Z,81.88
2023-03-29T02:12:50.661Z,81.88
2023-03-29T02:15:19.953Z,81.50
2023-03-29T02:17:48.100Z,82.01
2023-03-29T02:20:27.872Z,81.62
2023-03-29T02:23:00.840Z,81.81
2023-03-29T02:25:27.282Z,82.05
2023-03-29T02:27:54.072Z,81.63
2023-03-29T02:30:21.029Z,81.35
2023-03-29T02:32:53.694Z,81.37
2023-03-29T02:35:27.053Z,81.14
2023-03-29T02:37:55.733Z,81.67
2023-03-29T02:40:24.528Z,81.54
2023-03-29T02:42:51.127Z,81.50
2023-03-29T02:45:18.675Z,81.75
2023-03-29T02:47:48.255Z,82.20
2023-03-29T02:50:14.730Z,81.59
2023-03-29T02:52:47.176Z,81.94
2023-03-29T02:55:18.106Z,81.55
2023-03-29T02:57:44.414Z,81.79
2023-03-29T03:00:12.033Z,81.65
2023-03-29T03:02:38.439Z,80.93
2023-03-29T03:05:05.406Z,81.77
2023-03-29T03:07:32.252Z,81.01
2023-03-29T03:09:58.570Z,81.22
2023-03-29T03:12:25.026Z,81.69
2023-03-29T03:14:51.333Z,81.50
2023-03-29T03:17:17.633Z,82.09
2023-03-29T03:19:44.130Z,81.12
2023-03-29T03:22:10.443Z,81.77
2023-03-29T03:24:36.776Z,81.20
2023-03-29T03:27:03.224Z,81.67
2023-03-29T03:29:29.506Z,81.03
2023-03-29T03:31:55.870Z,81.85
2023-03-29T03:34:22.609Z,81.23
2023-03-29T03:36:48.916Z,81.51
2023-03-29T03:39:15.214Z,82.00
2023-03-29T03:41:41.489Z,81.95
2023-03-29T03:44:07.805Z,82.29
2023-03-29T03:46:34.170Z,81.90
2023-03-29T03:49:00.470Z,82.53
2023-03-29T03:51:26.767Z,82.39
2023-03-29T03:53:53.067Z,82.66
2023-03-29T03:56:19.352Z,83.05
2023-03-29T03:58:45.768Z,82.92
2023-03-29T04:01:12.111Z,82.97
2023-03-29T04:03:38.729Z,83.41
2023-03-29T04:06:05.523Z,83.63
2023-03-29T04:08:31.900Z,82.86
2023-03-29T04:10:59.852Z,83.30
2023-03-29T04:13:27.414Z,84.07
2023-03-29T04:15:54.632Z,83.30
2023-03-29T04:18:21.713Z,83.23
2023-03-29T04:20:48.475Z,83.09
2023-03-29T04:23:15.240Z,83.23
2023-03-29T04:25:41.753Z,83.10
2023-03-29T04:28:09.327Z,83.36
2023-03-29T04:30:35.638Z,83.71
2023-03-29T04:33:02.028Z,83.67
2023-03-29T04:35:28.375Z,83.16
2023-03-29T04:37:54.682Z,83.47
2023-03-29T04:40:20.992Z,83.39
2023-03-29T04:42:47.566Z,83.76
2023-03-29T04:45:14.446Z,83.25
2023-03-29T04:47:41.247Z,83.36
2023-03-29T04:50:08.059Z,83.05
2023-03-29T04:52:35.008Z,83.39
2023-03-29T04:55:01.849Z,82.96
2023-03-29T04:57:28.768Z,82.88
2023-03-29T04:59:55.129Z,83.41
2023-03-29T05:02:21.843Z,83.07
2023-03-29T05:04:48.195Z,82.72
2023-03-29T05:07:15.082Z,83.36
2023-03-29T05:09:41.627Z,82.80
2023-03-29T05:12:08.034Z,83.02
2023-03-29T05:14:34.357Z,82.54
2023-03-29T05:17:00.686Z,82.86
2023-03-29T05:19:27.167Z,82.88
2023-03-29T05:21:53.489Z,82.60
2023-03-29T05:24:20.252Z,82.85
2023-03-29T05:26:46.684Z,82.39
2023-03-29T05:29:13.585Z,82.65
2023-03-29T05:31:39.935Z,82.89
2023-03-29T05:34:06.786Z,82.60
2023-03-29T05:36:33.653Z,83.11
2023-03-29T05:38:59.982Z,82.90
2023-03-29T05:41:26.318Z,82.54
2023-03-29T05:43:52.666Z,82.99
2023-03-29T05:46:19.029Z,82.68
2023-03-29T05:48:45.470Z,82.76
2023-03-29T05:51:11.763Z,82.74
2023-03-29T05:53:38.076Z,82.05
2023-03-29T05:56:04.686Z,82.12
2023-03-29T05:58:31.080Z,82.17
2023-03-29T06:00:57.431Z,82.34
2023-03-29T06:03:24.826Z,81.85
2023-03-29T06:06:01.729Z,82.48
2023-03-29T06:08:28.643Z,81.88
2023-03-29T06:11:05.097Z,81.89
2023-03-29T06:13:32.903Z,81.64
2023-03-29T06:15:59.471Z,82.24
2023-03-29T06:18:26.039Z,81.38
2023-03-29T06:20:53.578Z,81.44
2023-03-29T06:23:20.581Z,81.54
2023-03-29T06:25:47.379Z,81.51
2023-03-29T06:28:14.559Z,81.59
2023-03-29T06:30:41.716Z,81.53
2023-03-29T06:33:08.979Z,80.31
2023-03-29T06:35:36.796Z,80.21
2023-03-29T06:38:03.987Z,80.09
2023-03-29T06:40:30.485Z,80.56
2023-03-29T06:42:57.906Z,80.45
2023-03-29T06:45:26.303Z,79.67
2023-03-29T06:47:54.957Z,79.57
2023-03-29T06:50:21.423Z,79.47
2023-03-29T06:52:47.774Z,79.34
2023-03-29T06:55:14.090Z,78.55
2023-03-29T06:57:40.434Z,78.40
2023-03-29T07:00:07.537Z,77.35
2023-03-29T07:02:33.856Z,77.23
2023-03-29T07:05:00.152Z,77.12
2023-03-29T07:07:26.449Z,77.54
2023-03-29T07:09:52.753Z,75.86
2023-03-29T07:12:20.623Z,75.48
2023-03-29T07:14:46.943Z,74.53
2023-03-29T07:17:13.266Z,74.91
2023-03-29T07:19:39.569Z,74.76
2023-03-29T07:22:05.929Z,74.25
2023-03-29T07:24:32.256Z,73.66
2023-03-29T07:27:03.752Z,73.29
2023-03-29T07:29:31.624Z,72.17
2023-03-29T07:31:57.997Z,72.39
2023-03-29T07:34:24.390Z,71.69
2023-03-29T07:36:50.768Z,71.61
2023-03-29T07:39:17.088Z,71.01
2023-03-29T07:41:43.419Z,70.51
2023-03-29T07:44:09.729Z,70.08
2023-03-29T07:46:36.766Z,70.04
2023-03-29T07:49:03.978Z,69.52
2023-03-29T07:51:30.288Z,69.43
2023-03-29T07:53:56.574Z,68.99
2023-03-29T07:56:23.014Z,68.33
2023-03-29T07:58:49.319Z,67.63
2023-03-29T08:01:18.701Z,67.79
2023-03-29T08:03:45.854Z,67.75
2023-03-29T08:06:12.244Z,67.74
2023-03-29T08:08:38.575Z,67.04
2023-03-29T08:11:05.003Z,66.82
2023-03-29T08:13:31.331Z,66.34
2023-03-29T08:15:57.665Z,66.03
2023-03-29T08:18:24.024Z,66.13
2023-03-29T08:20:50.514Z,65.37
2023-03-29T08:23:16.871Z,64.75
2023-03-29T08:25:44.910Z,63.17
2023-03-29T08:28:11.191Z,62.96
2023-03-29T08:30:37.551Z,62.71
2023-03-29T08:33:03.959Z,63.27
2023-03-29T08:35:30.337Z,62.05
2023-03-29T08:37:56.652Z,61.95
2023-03-29T08:40:26.227Z,61.42
2023-03-29T08:43:02.494Z,61.41
2023-03-29T08:45:39.113Z,60.87
2023-03-29T08:48:05.396Z,62.02
2023-03-29T08:50:43.642Z,60.87
2023-03-29T08:53:24.073Z,60.75
2023-03-29T08:55:52.914Z,59.89
2023-03-29T08:58:25.157Z,60.23
2023-03-29T09:00:55.060Z,59.32
2023-03-29T09:03:24.105Z,59.60
2023-03-29T09:06:05.825Z,59.85
2023-03-29T09:08:37.185Z,59.62
2023-03-29T09:11:25.010Z,60.70
2023-03-29T09:14:06.545Z,60.71
2023-03-29T09:16:44.923Z,59.88
2023-03-29T09:19:23.247Z,60.14
2023-03-29T09:22:03.573Z,59.11
2023-03-29T09:24:42.050Z,60.32
2023-03-29T09:27:14.583Z,59.95
2023-03-29T09:29:49.261Z,59.06
2023-03-29T09:32:34.495Z,58.50
2023-03-29T09:35:15.727Z,56.57
2023-03-29T09:37:42.185Z,58.20
2023-03-29T09:40:16.108Z,57.97
2023-03-29T09:42:44.259Z,58.76
2023-03-29T09:45:10.958Z,58.86
2023-03-29T09:47:48.498Z,58.66
2023-03-29T09:50:30.796Z,58.90
2023-03-29T09:52:57.599Z,58.64
2023-03-29T09:55:29.085Z,58.10
2023-03-29T09:58:00.545Z,57.58
2023-03-29T10:00:26.891Z,58.09
2023-03-29T10:02:56.170Z,57.75
2023-03-29T10:05:24.936Z,55.87
2023-03-29T10:07:54.249Z,55.82
2023-03-29T10:10:27.980Z,55.92
2023-03-29T10:12:59.822Z,55.72
2023-03-29T10:15:30.669Z,56.21
2023-03-29T10:18:08.148Z,56.24
2023-03-29T10:20:36.568Z,54.91
2023-03-29T10:23:06.901Z,55.01
2023-03-29T10:25:37.053Z,55.75
2023-03-29T10:28:16.232Z,54.16
2023-03-29T10:30:44.279Z,54.38
2023-03-29T10:33:20.149Z,54.76
2023-03-29T10:35:48.151Z,54.76
2023-03-29T10:38:18.281Z,54.23
2023-03-29T10:40:50.599Z,52.66
2023-03-29T10:43:16.844Z,52.82
2023-03-29T10:45:44.302Z,54.26
2023-03-29T10:48:15.540Z,54.83
2023-03-29T10:50:42.471Z,54.92
2023-03-29T10:53:25.974Z,54.58
2023-03-29T10:56:10.328Z,54.13
2023-03-29T10:58:43.725Z,55.21
2023-03-29T11:01:24.676Z,54.62
2023-03-29T11:04:29.978Z,53.92
2023-03-29T11:07:20.070Z,54.48
2023-03-29T11:09:59.214Z,53.25
2023-03-29T11:12:25.373Z,51.90
2023-03-29T11:15:12.887Z,53.42
2023-03-29T11:17:57.721Z,52.90
2023-03-29T11:20:48.665Z,53.78
2023-03-29T11:23:21.171Z,53.75
2023-03-29T11:25:59.513Z,54.88
2023-03-29T11:28:53.808Z,54.80
2023-03-29T11:31:23.041Z,55.36
2023-03-29T11:33:53.651Z,55.52
2023-03-29T11:36:39.137Z,55.41
2023-03-29T11:39:21.542Z,55.45
2023-03-29T11:41:57.960Z,55.47
2023-03-29T11:44:29.515Z,56.43
2023-03-29T11:47:01.946Z,55.28
2023-03-29T11:49:52.607Z,55.97
2023-03-29T11:52:24.695Z,56.03
2023-03-29T11:54:50.941Z,54.82
2023-03-29T11:57:26.161Z,55.92
2023-03-29T12:00:13.222Z,55.55
2023-03-29T12:02:56.051Z,55.47
2023-03-29T12:05:30.214Z,54.53
2023-03-29T12:08:20.487Z,55.01
2023-03-29T12:11:29.254Z,55.46
2023-03-29T12:14:19.245Z,54.90
2023-03-29T12:17:00.877Z,54.29
2023-03-29T12:19:30.208Z,54.31
2023-03-29T12:21:58.748Z,54.55
2023-03-29T12:24:29.518Z,54.73
2023-03-29T12:27:04.618Z,54.81
2023-03-29T12:29:49.036Z,53.74
2023-03-29T12:32:37.134Z,53.94
2023-03-29T12:35:22.410Z,53.88
2023-03-29T12:37:54.744Z,55.02
2023-03-29T12:40:25.443Z,53.79
2023-03-29T12:42:54.233Z,53.77
2023-03-29T12:45:33.040Z,53.96
2023-03-29T12:47:59.927Z,53.44
2023-03-29T12:50:32.932Z,53.95
2023-03-29T12:53:17.096Z,54.91
2023-03-29T12:55:43.568Z,55.24
2023-03-29T12:58:25.465Z,55.11
2023-03-29T13:01:07.270Z,53.75
2023-03-29T13:03:39.553Z,52.79
2023-03-29T13:06:11.341Z,53.33
2023-03-29T13:08:43.257Z,53.55
2023-03-29T13:11:26.629Z,53.33
2023-03-29T13:13:53.321Z,53.03
2023-03-29T13:16:29.040Z,53.49
2023-03-29T13:19:05.097Z,52.47
2023-03-29T13:21:53.163Z,53.49
2023-03-29T13:24:29.759Z,53.33
2023-03-29T13:27:14.964Z,54.44
2023-03-29T13:29:44.250Z,53.97
2023-03-29T13:32:57.226Z,54.03
2023-03-29T13:36:14.226Z,54.60
2023-03-29T13:38:46.503Z,54.18
2023-03-29T13:41:33.363Z,54.65
2023-03-29T13:44:00.136Z,53.64
2023-03-29T13:46:43.507Z,54.99
2023-03-29T13:49:23.352Z,54.51
2023-03-29T13:52:34.632Z,54.08
2023-03-29T13:55:15.578Z,53.83
2023-03-29T13:58:12.655Z,54.34
2023-03-29T14:00:45.266Z,54.95
2023-03-29T14:03:17.280Z,54.52
2023-03-29T14:06:01.092Z,55.16
2023-03-29T14:08:29.976Z,55.83
2023-03-29T14:11:00.725Z,54.26
2023-03-29T14:13:28.730Z,55.40
2023-03-29T14:16:15.367Z,55.29
2023-03-29T14:18:42.541Z,55.42
2023-03-29T14:21:12.224Z,55.71
2023-03-29T14:23:38.594Z,55.99
2023-03-29T14:26:09.077Z,55.88
2023-03-29T14:28:35.376Z,56.11
2023-03-29T14:31:01.805Z,56.04
2023-03-29T14:33:29.291Z,56.11
2023-03-29T14:35:58.111Z,56.67
2023-03-29T14:38:25.705Z,56.72
2023-03-29T14:40:52.278Z,55.25
2023-03-29T14:43:20.818Z,56.13
2023-03-29T14:45:48.006Z,55.13
2023-03-29T14:48:14.949Z,56.14
2023-03-29T14:50:42.332Z,55.84
2023-03-29T14:53:22.684Z,55.82
2023-03-29T14:55:51.331Z,56.62
2023-03-29T14:58:35.871Z,56.72
2023-03-29T15:01:07.437Z,56.47
2023-03-29T15:03:55.106Z,57.16
2023-03-29T15:06:24.102Z,56.85
2023-03-29T15:08:57.974Z,57.29
2023-03-29T15:11:31.224Z,58.01
2023-03-29T15:14:25.175Z,58.44
2023-03-29T15:16:55.474Z,58.60
2023-03-29T15:19:25.184Z,57.67
2023-03-29T15:21:51.948Z,59.44
2023-03-29T15:24:27.613Z,58.96
2023-03-29T15:27:03.752Z,60.43
2023-03-29T15:29:36.041Z,59.01
2023-03-29T15:32:02.786Z,60.52
2023-03-29T15:34:30.856Z,60.36
2023-03-29T15:36:57.745Z,59.74
2023-03-29T15:39:24.931Z,59.96
2023-03-29T15:41:52.640Z,60.42
2023-03-29T15:44:27.312Z,59.96
2023-03-29T15:46:54.223Z,60.69
2023-03-29T15:49:21.179Z,60.52
2023-03-29T15:51:47.485Z,60.94
2023-03-29T15:54:13.824Z,61.06
2023-03-29T15:57:08.530Z,61.85
2023-03-29T15:59:35.139Z,61.97
2023-03-29T16:02:01.583Z,62.34
2023-03-29T16:04:27.987Z,62.07
2023-03-29T16:06:55.355Z,62.22
2023-03-29T16:09:22.562Z,62.10
2023-03-29T16:11:49.537Z,62.85
2023-03-29T16:14:24.380Z,63.04
2023-03-29T16:16:52.130Z,63.00
2023-03-29T16:19:19.506Z,62.92
2023-03-29T16:21:45.954Z,63.33
2023-03-29T16:24:18.431Z,63.14
2023-03-29T16:26:45.299Z,62.86
2023-03-29T16:29:12.141Z,62.52
2023-03-29T16:31:38.956Z,63.25
2023-03-29T16:34:05.633Z,62.79
2023-03-29T16:36:32.015Z,63.27
2023-03-29T16:38:58.488Z,63.71
2023-03-29T16:41:24.911Z,63.37
2023-03-29T16:43:51.244Z,63.75
2023-03-29T16:51:56.958Z,63.27
2023-03-29T16:54:23.273Z,63.73
2023-03-29T16:56:49.608Z,63.32
2023-03-29T16:59:15.903Z,63.17
2023-03-29T17:01:42.458Z,63.89
2023-03-29T17:04:09.091Z,63.65
2023-03-29T17:06:35.529Z,64.28
2023-03-29T17:09:01.847Z,64.52
2023-03-29T17:11:28.592Z,64.17
2023-03-29T17:14:00.395Z,65.03
2023-03-29T17:16:29.585Z,65.22
2023-03-29T17:18:59.879Z,64.83
2023-03-29T17:21:26.248Z,65.74
2023-03-29T17:23:52.629Z,64.85
2023-03-29T17:26:18.953Z,65.55
2023-03-29T17:28:45.264Z,65.00
2023-03-29T17:31:11.731Z,65.38
2023-03-29T17:33:40.089Z,66.02
2023-03-29T17:36:07.385Z,66.16
2023-03-29T17:38:34.354Z,65.68
2023-03-29T17:41:01.074Z,66.20
2023-03-29T17:43:30.502Z,66.21
2023-03-29T17:45:56.788Z,65.22
2023-03-29T17:48:24.034Z,66.28
2023-03-29T17:50:50.540Z,66.20
2023-03-29T17:53:16.915Z,66.08
2023-03-29T17:55:43.258Z,66.38
2023-03-29T17:58:09.558Z,66.71
2023-03-29T18:00:35.937Z,66.75
2023-03-29T18:03:02.322Z,67.24
2023-03-29T18:05:28.715Z,66.90
2023-03-29T18:07:55.181Z,67.36
2023-03-29T18:10:21.652Z,67.17
2023-03-29T18:12:48.028Z,66.90
2023-03-29T18:15:14.350Z,68.28
2023-03-29T18:17:40.717Z,68.02
2023-03-29T18:20:07.749Z,68.43
2023-03-29T18:22:34.040Z,67.64
2023-03-29T18:25:00.330Z,68.43
2023-03-29T18:27:26.624Z,68.27
2023-03-29T18:29:52.983Z,68.48
2023-03-29T18:32:19.467Z,68.01
2023-03-29T18:34:45.883Z,68.79
2023-03-29T18:37:12.179Z,69.16
2023-03-29T18:39:38.459Z,69.27
2023-03-29T18:42:04.838Z,69.07
2023-03-29T18:44:31.177Z,69.44
2023-03-29T18:46:57.476Z,69.54
2023-03-29T18:49:24.402Z,69.96
2023-03-29T18:51:50.702Z,70.05
2023-03-29T18:54:17.593Z,69.68
2023-03-29T18:56:44.000Z,69.84
2023-03-29T18:59:10.334Z,69.36
2023-03-29T19:01:36.771Z,70.43
2023-03-29T19:04:03.310Z,69.45
2023-03-29T19:06:29.782Z,70.01
2023-03-29T19:08:56.084Z,69.99
2023-03-29T19:11:22.408Z,70.02
2023-03-29T19:13:48.715Z,70.18
2023-03-29T19:16:15.061Z,70.31
2023-03-29T19:18:41.501Z,70.03
2023-03-29T19:21:07.960Z,70.33
2023-03-29T19:23:34.331Z,70.59
2023-03-29T19:26:02.950Z,71.05
2023-03-29T19:28:29.780Z,71.12
2023-03-29T19:30:58.742Z,70.96
2023-03-29T19:33:25.118Z,71.21
2023-03-29T19:35:51.571Z,70.85
2023-03-29T19:38:20.997Z,71.52
2023-03-29T19:40:49.025Z,71.34
2023-03-29T19:43:15.709Z,71.30
2023-03-29T19:45:47.370Z,71.48
2023-03-29T19:48:21.938Z,71.32
2023-03-29T19:50:49.168Z,71.77
2023-03-29T19:53:15.484Z,72.03
2023-03-29T19:55:42.379Z,72.07
2023-03-29T19:58:08.856Z,71.61
2023-03-29T20:00:35.293Z,72.13
2023-03-29T20:03:01.693Z,72.68
2023-03-29T20:05:28.148Z,71.90
2023-03-29T20:07:54.476Z,71.62
2023-03-29T20:10:20.823Z,72.07
2023-03-29T20:12:47.101Z,72.45
2023-03-29T20:15:13.486Z,72.58
2023-03-29T20:17:39.802Z,72.42
2023-03-29T20:20:10.360Z,73.22
2023-03-29T20:22:38.026Z,73.39
2023-03-29T20:25:05.122Z,72.97
2023-03-29T20:27:31.418Z,73.63
2023-03-29T20:29:57.693Z,73.14
2023-03-29T20:32:24.059Z,73.46
2023-03-29T20:34:50.379Z,73.21
2023-03-29T20:37:16.683Z,73.76
2023-03-29T20:39:42.951Z,73.85
2023-03-29T20:42:09.274Z,73.41
2023-03-29T20:44:35.569Z,73.95
2023-03-29T20:47:01.892Z,74.26
2023-03-29T20:49:30.247Z,74.12
2023-03-29T20:51:56.541Z,74.29
2023-03-29T20:54:22.833Z,74.41
2023-03-29T20:56:49.236Z,74.49
2023-03-29T20:59:15.526Z,74.32
2023-03-29T21:01:41.840Z,74.91
2023-03-29T21:04:08.709Z,74.82
2023-03-29T21:06:35.998Z,74.96
2023-03-29T21:09:02.309Z,74.85
2023-03-29T21:11:28.638Z,74.74
2023-03-29T21:13:54.908Z,74.87
2023-03-29T21:16:21.256Z,74.83
2023-03-29T21:18:47.560Z,74.64
2023-03-29T21:21:13.867Z,75.19
2023-03-29T21:23:40.141Z,74.66
2023-03-29T21:26:06.474Z,74.78
2023-03-29T21:28:33.452Z,74.52
2023-03-29T21:31:04.036Z,74.54
2023-03-29T21:33:30.541Z,74.65
2023-03-29T21:35:57.062Z,74.61
2023-03-29T21:38:23.622Z,74.96
2023-03-29T21:40:55.595Z,75.46
2023-03-29T21:43:22.208Z,75.45
2023-03-29T21:45:49.778Z,74.96
2023-03-29T21:48:17.175Z,75.26
2023-03-29T21:50:43.526Z,75.22
2023-03-29T21:53:10.191Z,75.40
2023-03-29T21:55:36.490Z,75.66
2023-03-29T21:58:04.017Z,75.47
2023-03-29T22:00:31.123Z,75.54
2023-03-29T22:02:57.503Z,75.56
2023-03-29T22:05:23.861Z,75.12
2023-03-29T22:07:50.155Z,75.29
2023-03-29T22:10:16.970Z,75.56
2023-03-29T22:12:43.275Z,75.90
2023-03-29T22:15:10.577Z,75.88
2023-03-29T22:17:36.909Z,75.98
2023-03-29T22:20:04.070Z,75.93
2023-03-29T22:22:30.408Z,75.62
2023-03-29T22:24:56.711Z,76.05
2023-03-29T22:27:23.152Z,76.21
2023-03-29T22:29:49.473Z,76.28
2023-03-29T22:32:15.943Z,76.25
2023-03-29T22:34:42.430Z,76.34
2023-03-29T22:37:08.731Z,76.39
2023-03-29T22:39:35.604Z,76.88
2023-03-29T22:42:02.111Z,76.45
2023-03-29T22:44:28.534Z,76.08
2023-03-29T22:46:54.843Z,76.22
2023-03-29T22:49:21.411Z,76.38
2023-03-29T22:51:47.749Z,76.99
2023-03-29T22:54:14.091Z,76.94
2023-03-29T22:56:42.267Z,76.91
2023-03-29T22:59:08.818Z,76.84
2023-03-29T23:01:35.226Z,76.88
2023-03-29T23:04:01.704Z,76.99
2023-03-29T23:06:28.066Z,76.36
2023-03-29T23:08:54.393Z,77.25
2023-03-29T23:11:20.820Z,77.07
2023-03-29T23:13:47.124Z,77.11
2023-03-29T23:16:13.469Z,77.53
2023-03-29T23:18:39.808Z,77.73
2023-03-29T23:21:06.785Z,77.65
2023-03-29T23:23:33.354Z,77.72
2023-03-29T23:25:59.862Z,77.71
2023-03-29T23:28:27.746Z,77.87
2023-03-29T23:31:10.696Z,78.10
2023-03-29T23:33:41.759Z,78.61
2023-03-29T23:36:11.387Z,78.58
2023-03-29T23:38:38.878Z,78.93
2023-03-29T23:41:08.031Z,79.54
2023-03-29T23:43:36.419Z,80.81
2023-03-29T23:46:05.340Z,81.23
2023-03-29T23:48:32.012Z,82.10
2023-03-29T23:50:58.348Z,82.00
2023-03-29T23:53:26.159Z,82.64
2023-03-29T23:55:55.859Z,82.32
2023-03-29T23:58:24.945Z,82.72
